Tiempo atmosférico en la estación meteorológica de Fisterra, A Coruña (230 m.)



Fecha
DESCASC
Temp. máxima en grados centígrados (hora)
DESCASC
Temp. mínima en grados centígrados (hora)
DESCASC
Temp. media en grados centígrados
DESCASC
Racha de viento máxima en m/sg (hora)
DESCASC
Velocidad máxima media en intervalos de 10 minutos(hora)
DESCASC
Precipitaciones diarias en mm
DESCASC
Precipitaciones de 00:00 a 06:00 en mm
DESCASC
Precipitaciones de 06:00 a 12:00 en mm
DESCASC
Precipitaciones de 12:00 a 18:00 en mm
DESCASC
Precipitaciones de 18:00 a 24:00 en mm
DESCASC
18-01-2018 11.6 (14:30) 9 (03:00) 10.3 7.78 (06:00) 3.61 (05:50) 1 0 0 0 1
17-01-2018 11.6 (00:00) 9.4 (03:50) 10.5 14.17 (01:40) 9.72 (04:00) 0 0 0 0 0
16-01-2018 12.1 (00:00) 10.9 (08:00) 11.5 11.39 (18:40) 8.61 (16:20) 1.6 0.4 0.4 0.4 0.4
15-01-2018 12.3 (19:50) 7.1 (01:00) 9.7 15 (15:00) 11.94 (15:40) 12.4 0 0 8.2 4.2
14-01-2018 11.1 (16:30) 6.3 (00:00) 8.7 11.94 (00:20) 6.94 (02:20) 5 1 4 0 0
13-01-2018 11.2 (12:50) 7.4 (00:00) 9.3 23.33 (00:40) 13.61 (00:40) 7.6 6.4 0.4 0.2 0.6
12-01-2018 10.8 (14:10) 7.7 (00:00) 9.3 25 (23:59) 13.89 (23:00) 4 0 0 0 4
11-01-2018 10.5 (16:10) 7.4 (00:00) 9 21.94 (03:00) 9.17 (07:20) 0 0 0 0 0
10-01-2018 11.3 (08:40) 6.8 (00:00) 9.1 33.61 (09:00) 24.72 (09:10) 3.8 0 3.2 0.2 0.4
09-01-2018 14.1 (15:10) 8.7 (00:00) 11.4 28.61 (09:30) 22.5 (09:30) 13.8 0.8 13 0 0
08-01-2018 12.7 (14:30) 8.8 (00:00) 10.8 15.83 (21:40) 12.5 (21:40) 2.4 0.2 0 2 0.2
07-01-2018 9.7 (14:50) 5.1 (00:00) 7.4 20.83 (10:00) 13.89 (10:00) 2 1.6 0 0.2 0.2
06-01-2018 8.5 (13:40) 5.2 (00:00) 6.8 17.22 (09:20) 9.17 (09:20) 1 0 0.6 0.4 0
05-01-2018 13 (01:10) 4.6 (00:00) 8.8 25.83 (01:10) 21.67 (01:00) 19 17.8 0.6 0 0.6
04-01-2018 13.6 (01:50) 12.4 (19:10) 13 26.11 (22:10) 20.56 (23:50) 0.2 0 0 0 0.2
03-01-2018 13.9 (02:40) 13.3 (00:00) 13.6 17.22 (01:10) 13.33 (02:40) 1.4 0.4 0.4 0.4 0.2
02-01-2018 14.1 (12:40) 12.6 (00:00) 13.4 19.44 (09:00) 15.83 (10:40) 3 0.4 1.8 0.4 0.4
01-01-2018 12.9 (18:00) 11.3 (00:00) 12.1 22.5 (06:50) 16.39 (06:50) 1.2 0 1.2 0 0
31-12-2017 13 (08:00) 10 (00:00) 11.5 30 (04:50) 23.06 (07:50) 8.8 0 8.8 0 0
30-12-2017 14.1 (14:10) 12.8 (00:00) 13.5 22.78 (22:40) 16.94 (22:00) 0.2 0 0 0 0.2
29-12-2017 15 (14:10) 12.4 (00:00) 13.7 17.78 (20:00) 14.17 (23:50) 2.6 1.6 0.2 0.2 0.6
28-12-2017 12.9 (06:30) 10.5 (00:00) 11.7 14.17 (06:30) 9.72 (06:20) 1.6 1 0.4 0 0.2
27-12-2017 11.5 (13:30) 8 (00:00) 9.8 27.5 (00:10) 12.22 (05:30) 4.8 0 0.2 0.2 4.4
26-12-2017 12.7 (19:20) 8.1 (00:00) 10.4 33.89 (22:00) 21.39 (18:30) 9.8 0 3.2 2.6 4
25-12-2017 12.1 (12:20) 8.6 (00:00) 10.4 25.83 (14:20) 19.72 (13:40) 7.8 0 1 6.8 0
24-12-2017 14.1 (14:10) 10 (00:00) 12.1 11.39 (23:59) 7.78 (23:59) 0 0 0 0 0

Gráficas

Temp. máximas Temp. mínimas Temp. medias Precipitaciones Rachas de viento máximas Velocidades máximas media en intervalos de 10 minutos

Datos horarios

Fecha y hora oficial Temperatura (ºC) Velocidad del viento (km/h) Dirección del viento Racha (km/h) Dirección de racha Precipitación (mm) Presión (hPa) Tendencia (hPa) Humedad (%)
2018-01-22 23:00:00 11.9 21 Sudoeste 28 Sudoeste 0 1002.1 -0.4 96
2018-01-22 22:00:00 12.1 22 Sudoeste 28 Sudoeste 0 1001.9 -0.4 96
2018-01-22 21:00:00 12.1 20 Sudoeste 27 Sudoeste 0 1002.3 0.1 96
2018-01-22 20:00:00 12.1 16 Sudoeste 26 Sudoeste 0 1002.5 0.6 96
2018-01-22 19:00:00 12.1 16 Sudoeste 24 Sudoeste 0 1002.3 0.6 96
2018-01-22 18:00:00 12.2 18 Oeste 24 Oeste 0.2 1002.2 0.3 96
2018-01-22 17:00:00 12.3 19 Sudoeste 26 Sudoeste 0.2 1001.9 -0.5 96
2018-01-22 16:00:00 12.5 21 Sudoeste 28 Sudoeste 0 1001.7 -1.2 96
2018-01-22 15:00:00 12.6 20 Sudoeste 28 Sudoeste 0 1001.9 -1.3 96
2018-01-22 14:00:00 12.2 24 Sudoeste 30 Sudoeste 0.6 1002.4 -0.5 96
2018-01-22 13:00:00 12.1 25 Sudoeste 31 Sudoeste 0 1002.9 0.3 96
2018-01-22 12:00:00 11.9 24 Sudoeste 32 Sudoeste 0.4 1003.2 0.8 96
2018-01-22 11:00:00 11.6 26 Sudoeste 32 Sudoeste 0.2 1002.9 0.6 96
2018-01-22 10:00:00 11.4 24 Sudoeste 28 Sudoeste 0 1002.6 0.2 96
2018-01-22 09:00:00 11.3 19 Sudoeste 31 Sur 0.2 1002.4 0.2 96
2018-01-22 08:00:00 11.2 21 Sudoeste 30 Sudoeste 0 1002.3 -0.2 96
2018-01-22 07:00:00 11.5 22 Sudoeste 29 Sudoeste 0 1002.4 -0.2 96
2018-01-22 06:00:00 11 24 Sudoeste 36 Sudoeste 0.4 1002.2 -0.4 96
2018-01-22 05:00:00 10.9 21 Sudoeste 28 Sudoeste 0 1002.5 -0.5 96
2018-01-22 04:00:00 10.8 24 Sudoeste 34 Oeste 0 1002.6 -0.8 96
2018-01-22 03:00:00 10.9 20 Sudoeste 30 Oeste 0 1002.6 -0.9 96
2018-01-22 02:00:00 10.6 24 Sudoeste 38 Oeste 0 1003 -0.4 96
2018-01-22 01:00:00 10.5 24 Oeste 37 Oeste 0 1003.4 0.1 96
2018-01-22 00:00:00 11.1 24 Oeste 37 Oeste 0.2 1003.5 0.2 96
2018-01-21 23:00:00 11.5 20 Oeste 33 Oeste 0 1003.4 0.2 96
2018-01-21 22:00:00 11.4 27 Oeste 36 Oeste 0 1003.3 0.5 96
2018-01-21 21:00:00 11.6 24 Oeste 34 Oeste 0.4 1003.3 0.3 96
2018-01-21 20:00:00 11.9 23 Oeste 33 Oeste 0 1003.2 0.2 96
2018-01-21 19:00:00 12 23 Sudoeste 31 Sudoeste 0 1002.8 -0.3 96
2018-01-21 18:00:00 12.1 22 Sudoeste 28 Sudoeste 0 1003 -0.2 96
2018-01-21 17:00:00 12.5 18 Sudoeste 21 Sudoeste 0 1003 -0.6 96
2018-01-21 16:00:00 12.6 16 Oeste 32 Oeste 0 1003.1 -1.2 96
2018-01-21 15:00:00 11.7 24 Oeste 33 Oeste 0 1003.2 -1.3 96
2018-01-21 14:00:00 12.2 22 Oeste 30 Sudoeste 0.2 1003.6 -0.3 96
2018-01-21 13:00:00 12 20 Oeste 34 Oeste 0 1004.3 0.8 96
2018-01-21 12:00:00 12 21 Oeste 30 Oeste 0 1004.5 1.4 96
2018-01-21 11:00:00 12 21 Sudoeste 26 Sudoeste 0 1003.9 1.1 96
2018-01-21 10:00:00 11.8 18 Sudoeste 28 Sudoeste 0.2 1003.5 1 96
2018-01-21 09:00:00 11.7 19 Sudoeste 24 Sudoeste 0 1003.1 0.7 96
2018-01-21 08:00:00 11.7 19 Sudoeste 22 Sudoeste 0 1002.8 0.2 96
2018-01-21 07:00:00 11.6 18 Oeste 24 Oeste 0 1002.5 -0.4 96
2018-01-21 06:00:00 11.6 20 Oeste 30 Oeste 0 1002.4 -0.3 96
2018-01-21 05:00:00 11.7 19 Oeste 31 Oeste 0 1002.6 -0.1 96
2018-01-21 04:00:00 11.7 23 Oeste 32 Oeste 0 1002.9 0.2 96
2018-01-21 03:00:00 11.8 26 Oeste 34 Oeste 0.4 1002.7 0.2 96
2018-01-21 02:00:00 11.9 17 Oeste 31 Oeste 0 1002.7 0.4 96
2018-01-21 01:00:00 11.9 21 Sudoeste 26 Sudoeste 0.2 1002.7 0.3 96
2018-01-21 00:00:00 11.8 25 Oeste 34 Oeste 0.2 1002.5 0.2 96
2018-01-20 23:00:00 11.7 24 Oeste 33 Oeste 0 1002.3 0.4 96
2018-01-20 22:00:00 11.8 27 Oeste 32 Oeste 0 1002.4 0.8 96
2018-01-20 21:00:00 11.9 24 Oeste 30 Oeste 0 1002.3 1.2 96
2018-01-20 20:00:00 11.8 22 Sudoeste 33 Sudoeste 0.2 1001.9 1.2 96
2018-01-20 19:00:00 11.8 26 Oeste 36 Oeste 0 1001.6 1.4 96
2018-01-20 18:00:00 11.8 26 Oeste 35 Oeste 0 1001.1 1 96
2018-01-20 17:00:00 12 24 Oeste 38 Oeste 0.2 1000.7 0.4 96
2018-01-20 16:00:00 12 23 Oeste 36 Oeste 0 1000.2 -0.7 95
2018-01-20 15:00:00 12.1 26 Oeste 44 Oeste 0 1000.1 -0.8 95
2018-01-20 14:00:00 11.9 32 Oeste 42 Oeste 0 1000.3 -0.8 95
2018-01-20 13:00:00 12.2 31 Oeste 45 Sudoeste 0.2 1000.9 0.4 95
2018-01-20 12:00:00 12 29 Sudoeste 39 Sudoeste 0 1000.9 0.6 95
2018-01-20 11:00:00 11.7 26 Oeste 37 Sudoeste 0.2 1001.1 1.4 95
2018-01-20 10:00:00 11.3 28 Sudoeste 42 Oeste 0 1000.5 1 94
2018-01-20 09:00:00 11.1 30 Oeste 41 Oeste 0 1000.3 1.2 92
2018-01-20 08:00:00 11 27 Sudoeste 33 Sudoeste 0 999.7 0 90
2018-01-20 07:00:00 10.6 24 Sudoeste 37 Oeste 0 999.5 -0.6 88
2018-01-20 06:00:00 10.5 27 Oeste 41 Oeste 0 999.1 -1.1 87
2018-01-20 05:00:00 10.5 26 Oeste 41 Oeste 0 999.7 -0.9 85
2018-01-20 04:00:00 10.4 27 Oeste 37 Oeste 0 1000.1 -0.3 84
2018-01-20 03:00:00 10.3 26 Oeste 34 Oeste 0 1000.2 -0.5 86
2018-01-20 02:00:00 10 25 Oeste 33 Oeste 0 1000.6 -0.6 88
2018-01-20 01:00:00 9.4 18 Sudoeste 24 Sur 0 1000.4 -0.4 92
2018-01-20 00:00:00 9.5 12 Sudoeste 17 Sudoeste 0 1000.7 -0.3 91
2018-01-19 23:00:00 9.6 8 Oeste 13 Oeste 0 1001.2 0.6 89
2018-01-19 22:00:00 9.8 4 Oeste 18 Noroeste 0 1000.8 0.6 88
2018-01-19 21:00:00 10 8 Noroeste 17 Norte 0 1001 1.1 88
2018-01-19 20:00:00 10.2 12 Norte 20 Norte 0 1000.6 1.2 87
2018-01-19 19:00:00 10.5 10 Norte 24 Norte 0 1000.2 1.4 85
2018-01-19 18:00:00 11.1 12 Norte 26 Norte 0 999.9 1.1 80
2018-01-19 17:00:00 11.5 17 Norte 27 Norte 0 999.4 0.2 78
2018-01-19 16:00:00 11.6 13 Norte 23 Norte 0 998.8 -1 76
2018-01-19 15:00:00 11.6 13 Norte 23 Norte 0 998.8 -0.9 76
2018-01-19 14:00:00 11.6 13 Norte 31 Norte 0 999.2 0 75
2018-01-19 13:00:00 11.2 18 Norte 30 Norte 0 999.8 0.9 73
2018-01-19 12:00:00 10.9 15 Norte 32 Norte 0 999.7 1.5 75
2018-01-19 11:00:00 10.4 24 Norte 45 Norte 0 999.2 1.7 73
2018-01-19 10:00:00 10.1 24 Norte 44 Norte 0 998.9 2.1 84
2018-01-19 09:00:00 10.3 29 Norte 49 Norte 0 998.2 1.5 86
2018-01-19 08:00:00 10 25 Norte 50 Norte 0.2 997.5 1.2 95
2018-01-19 07:00:00 10.6 27 Norte 41 Norte 0.2 996.8 0.1 96
2018-01-19 06:00:00 11.4 14 Noroeste 27 Norte 0 996.7 0 96
2018-01-19 05:00:00 11.4 8 Noroeste 19 Noroeste 0 996.3 -0.7 96
2018-01-19 04:00:00 11.4 12 Noroeste 26 Noroeste 0.2 996.7 -0.5 95
2018-01-19 03:00:00 11 12 Noroeste 22 Oeste 0.2 996.7 -0.4 95
2018-01-19 02:00:00 10.4 8 Sudoeste 12 Oeste 0 997 -0.1 95
2018-01-19 01:00:00 10.5 5 Sudoeste 9 Sudoeste 0.2 997.2 -0.1 95
2018-01-19 00:00:00 10.3 6 Sur 10 Sudeste 0.2 997.1 -0.3 95
2018-01-18 23:00:00 10.1 7 Este 12 Sudeste 0 997.1 -0.1 95
2018-01-18 22:00:00 10.2 6 Nordeste 9 Nordeste 0 997.3 0.2 94
2018-01-18 21:00:00 11 6 Noroeste 17 Oeste 0.4 997.4 0.4 94
2018-01-18 20:00:00 10.8 9 Oeste 14 Oeste 0.4 997.2 0.5 94
2018-01-18 19:00:00 10.6 5 Sudoeste 18 Oeste 0 997.1 0.3 94
2018-01-18 18:00:00 10.8 6 Oeste 14 Oeste 0 997 -0.3 93
2018-01-18 17:00:00 11 7 Oeste 11 Sudoeste 0 996.7 -1.1 90
2018-01-18 16:00:00 11.2 5 Noroeste 16 Oeste 0 996.8 -1.6 86
2018-01-18 15:00:00 11.5 6 Noroeste 16 Noroeste 0 997.3 -1.6 84
2018-01-18 14:00:00 11.4 6 Oeste 12 Oeste 0 997.8 -0.8 84
2018-01-18 13:00:00 11 6 Oeste 14 Norte 0 998.4 0 84
2018-01-18 12:00:00 10.6 8 Noroeste 20 Norte 0 998.9 0.7 85
2018-01-18 11:00:00 10.3 8 Noroeste 26 Noroeste 0 998.6 0.5 86
2018-01-18 10:00:00 10.1 9 Noroeste 22 Noroeste 0 998.4 0.3 87
2018-01-18 09:00:00 9.9 10 Noroeste 26 Noroeste 0 998.2 -0.2 87
2018-01-18 08:00:00 9.6 12 Noroeste 28 Noroeste 0 998.1 -0.6 85
2018-01-18 07:00:00 9.5 12 Noroeste 25 Noroeste 0 998.1 -1.2 85
2018-01-18 06:00:00 9.5 13 Noroeste 28 Noroeste 0 998.4 -1.3 84
2018-01-18 05:00:00 9.5 8 Noroeste 24 Noroeste 0 998.7 -1.6 82
2018-01-18 04:00:00 9.4 9 Noroeste 23 Norte 0 999.3 -1.7 83
2018-01-18 03:00:00 9.2 10 Noroeste 23 Noroeste 0 999.7 -1.6 82
2018-01-18 02:00:00 9.2 10 Noroeste 18 Noroeste 0 1000.3 -1.4 82
2018-01-18 01:00:00 9.3 5 Noroeste 21 Noroeste 0 1001 -0.8 79
2018-01-18 00:00:00 9.5 11 Norte 26 Norte 0 1001.3 -0.5 78
2018-01-17 23:00:00 9.5 10 Norte 26 Norte 0 1001.7 0.2 78
2018-01-17 22:00:00 9.6 7 Noroeste 24 Norte 0 1001.8 0.1 78
2018-01-17 21:00:00 9.5 12 Noroeste 23 Noroeste 0 1001.8 0.1 76
2018-01-17 20:00:00 10 13 Norte 28 Norte 0 1001.5 -0.3 77
2018-01-17 19:00:00 9.9 13 Norte 24 Norte 0 1001.7 -0.3 77
2018-01-17 18:00:00 10.2 11 Norte 25 Noroeste 0 1001.7 -0.9 82
2018-01-17 17:00:00 10.6 14 Norte 28 Norte 0 1001.8 -1.3 77
2018-01-17 16:00:00 11.1 14 Norte 27 Norte 0 1002 -1.7 72
2018-01-17 15:00:00 11 16 Norte 30 Norte 0 1002.6 -1.4 73
2018-01-17 14:00:00 10.8 18 Norte 35 Norte 0 1003.1 -0.5 69
2018-01-17 13:00:00 11.1 17 Norte 29 Norte 0 1003.7 0.6 78
2018-01-17 12:00:00 10.9 10 Norte 23 Norte 0 1004 1.3 74
2018-01-17 11:00:00 10.3 18 Norte 33 Norte 0 1003.6 1.4 72
2018-01-17 10:00:00 10.2 19 Norte 40 Norte 0 1003.1 1.1 72
2018-01-17 09:00:00 10.2 21 Norte 41 Norte 0 1002.7 0.6 77
2018-01-17 08:00:00 10 23 Norte 44 Norte 0 1002.2 0.1 76
2018-01-17 07:00:00 9.6 28 Norte 44 Norte 0 1002 -0.2 85
2018-01-17 06:00:00 9.9 20 Norte 42 Norte 0 1002.1 0.4 86
2018-01-17 05:00:00 9.8 22 Norte 50 Norte 0 1002.1 0.2 87
2018-01-17 04:00:00 9.6 35 Norte 50 Norte 0 1002.2 0.4 93
2018-01-17 03:00:00 9.8 19 Norte 44 Norte 0 1001.7 0.3 96
2018-01-17 02:00:00 10.3 22 Norte 51 Noroeste 0 1001.9 0.5 96
2018-01-17 01:00:00 11.5 11 Noroeste 36 Noroeste 0 1001.8 0.9 96
2018-01-17 00:00:00 11.6 19 Noroeste 35 Oeste 0 1001.4 0.5 96
2018-01-16 23:00:00 11.5 21 Noroeste 32 Oeste 0 1001.4 0.8 96
2018-01-16 22:00:00 11.2 19 Noroeste 40 Noroeste 0.2 1000.9 0.8 96
2018-01-16 21:00:00 11.5 21 Noroeste 40 Noroeste 0 1000.9 1.1 96
2018-01-16 20:00:00 11.6 22 Noroeste 37 Noroeste 0 1000.6 0.9 96
2018-01-16 19:00:00 11.6 20 Noroeste 41 Oeste 0.2 1000.1 0.2 96
2018-01-16 18:00:00 11.6 26 Oeste 36 Oeste 0 999.8 -0.6 96
2018-01-16 17:00:00 11.7 31 Oeste 39 Oeste 0.2 999.7 -1.1 96
2018-01-16 16:00:00 11.7 26 Oeste 36 Oeste 0 999.9 -1.8 96
2018-01-16 15:00:00 11.8 22 Oeste 36 Oeste 0 1000.4 -1.2 96
2018-01-16 14:00:00 11.8 27 Oeste 36 Oeste 0.2 1000.8 -0.4 96
2018-01-16 13:00:00 11.8 24 Oeste 33 Oeste 0 1001.7 0.9 96
2018-01-16 12:00:00 11.7 24 Oeste 32 Oeste 0 1001.6 1.1 96
2018-01-16 11:00:00 11.7 20 Sudoeste 31 Oeste 0.2 1001.2 1.2 96
2018-01-16 10:00:00 11.2 23 Oeste 32 Oeste 0 1000.8 1.3 96
2018-01-16 09:00:00 11.1 22 Noroeste 37 Oeste 0 1000.5 1.2 96
2018-01-16 08:00:00 10.9 23 Oeste 35 Oeste 0 1000 0.6 96
2018-01-16 07:00:00 11.4 21 Oeste 30 Oeste 0.2 999.5 0 96
2018-01-16 06:00:00 11.6 23 Oeste 32 Oeste 0 999.3 0 96
2018-01-16 05:00:00 11.4 22 Oeste 33 Noroeste 0 999.4 -0.3 96
2018-01-16 04:00:00 11.6 21 Oeste 31 Oeste 0.2 999.5 -0.4 96
2018-01-16 03:00:00 11.6 25 Oeste 36 Oeste 0 999.3 -0.1 96
2018-01-16 02:00:00 11.8 23 Noroeste 39 Noroeste 0 999.7 0.6 96
2018-01-16 01:00:00 11.9 27 Noroeste 38 Oeste 0.2 999.9 1.1 96
2018-01-16 00:00:00 12.1 32 Oeste 42 Oeste 0 999.4 0.9 96
2018-01-15 23:00:00 12.2 31 Oeste 46 Oeste 0 999.1 1.2 96
2018-01-15 22:00:00 12.3 31 Oeste 45 Oeste 0.2 998.8 1 96
2018-01-15 21:00:00 12.3 28 Oeste 40 Oeste 0 998.5 0.8 96
2018-01-15 20:00:00 12.2 34 Oeste 43 Oeste 1.6 997.9 0.3 95
2018-01-15 19:00:00 11.9 27 Sudoeste 43 Sudoeste 2.4 997.8 0.3 95
2018-01-15 18:00:00 11.5 34 Sudoeste 46 Sudoeste 3.8 997.7 0 95
2018-01-15 17:00:00 11.1 38 Sudoeste 51 Sudoeste 3.2 997.6 -0.7 95
2018-01-15 16:00:00 10.7 38 Sudoeste 53 Sudoeste 1.2 997.5 -1.7 94
2018-01-15 15:00:00 10.3 39 Sudoeste 54 Sudoeste 0 997.7 -1.8 93
2018-01-15 14:00:00 10.6 38 Sudoeste 51 Sudoeste 0 998.3 -0.7 88
2018-01-15 13:00:00 11 36 Sudoeste 45 Sudoeste 0 999.2 0.7 86
2018-01-15 12:00:00 10.1 31 Sudoeste 47 Sudoeste 0 999.5 1.4 93
2018-01-15 11:00:00 8.8 29 Sur 43 Sudoeste 0 999 1.3 94
2018-01-15 10:00:00 8.6 27 Sur 41 Sudoeste 0 998.5 0.6 94
2018-01-15 09:00:00 8.3 23 Sur 37 Sur 0 998.1 0.6 94
2018-01-15 08:00:00 8 20 Sur 30 Sur 0 997.7 0.4 93
2018-01-15 07:00:00 7.8 19 Sur 28 Sur 0 997.9 0.4 92
2018-01-15 06:00:00 7.9 16 Sur 27 Sur 0 997.5 0.3 92
2018-01-15 05:00:00 7.7 16 Sur 24 Sur 0 997.3 -0.2 92
2018-01-15 04:00:00 7.5 15 Sudoeste 23 Sur 0 997.5 -0.2 90
2018-01-15 03:00:00 7.5 15 Sur 22 Sur 0 997.2 -0.3 89
2018-01-15 02:00:00 7.5 11 Sur 16 Sur 0 997.5 0 87
2018-01-15 01:00:00 7.4 5 Sur 8 Sur 0 997.7 0.8 87
2018-01-15 00:00:00 7.5 4 Sur 12 Norte 0 997.5 1.3 85
2018-01-14 23:00:00 7.6 9 Norte 12 Norte 0 997.5 2.3 85
2018-01-14 22:00:00 7.6 10 Norte 12 Norte 0 996.9 2 86
2018-01-14 21:00:00 7.6 6 Noroeste 9 Noroeste 0 996.2 2.2 85
2018-01-14 20:00:00 7.4 6 Sudeste 8 Sudeste 0 995.2 2 84
2018-01-14 19:00:00 8.2 4 Sur 12 Sudoeste 0 994.9 2.2 81
2018-01-14 18:00:00 10 7 Sudoeste 15 Sudoeste 0 994 1.2 78
2018-01-14 17:00:00 10.9 10 Sudoeste 20 Sudoeste 0 993.2 0.3 78
2018-01-14 16:00:00 10.8 14 Sudoeste 24 Sur 0 992.7 -0.4 80
2018-01-14 15:00:00 10.9 14 Sur 29 Sur 0 992.8 -0.1 82
2018-01-14 14:00:00 9.4 13 Sur 25 Sur 0 992.9 0.6 89
2018-01-14 13:00:00 8.8 18 Sur 26 Sur 0 993.1 1 89
2018-01-14 12:00:00 8 12 Sudeste 23 Sur 0 992.9 1.5 93
2018-01-14 11:00:00 6.9 15 Sudeste 28 Sudeste 0.2 992.3 1.4 93
2018-01-14 10:00:00 6.7 9 Sudeste 19 Sudeste 1.8 992.1 1.2 93
2018-01-14 09:00:00 6.5 18 Sudeste 24 Sudeste 0.8 991.4 0.8 92
2018-01-14 08:00:00 6.3 11 Este 22 Sudeste 0.2 990.9 -0.1 91
2018-01-14 07:00:00 7 9 Noroeste 30 Norte 1 990.9 0.2 89
2018-01-14 06:00:00 7.5 6 Oeste 31 Sudoeste 0.2 990.6 0.1 78
2018-01-14 05:00:00 8 13 Noroeste 30 Oeste 0.2 991 0.2 83
2018-01-14 04:00:00 8.1 13 Noroeste 33 Noroeste 0.6 990.7 -0.3 79
2018-01-14 03:00:00 8 15 Norte 40 Norte 0 990.5 -0.2 70
2018-01-14 02:00:00 8.2 11 Noroeste 27 Norte 0 990.8 0.4 75
2018-01-14 01:00:00 7.7 13 Noroeste 43 Noroeste 0 991 1 77
2018-01-14 00:00:00 8.3 13 Noroeste 32 Noroeste 0 990.7 1.3 77
2018-01-13 23:00:00 8.3 18 Norte 37 Norte 0 990.4 1.1 75
2018-01-13 22:00:00 8.2 10 Noroeste 44 Norte 0 990 1.1 83
2018-01-13 21:00:00 7.9 19 Noroeste 45 Noroeste 0.4 989.4 1.2 84
2018-01-13 20:00:00 7.9 15 Oeste 38 Noroeste 0.2 989.3 1.4 83
2018-01-13 19:00:00 8.1 18 Noroeste 41 Noroeste 0 988.9 1.4 79
2018-01-13 18:00:00 8.3 21 Noroeste 58 Oeste 0 988.2 0.4 73
2018-01-13 17:00:00 10.1 33 Oeste 45 Noroeste 0 987.9 0 69
2018-01-13 16:00:00 9.6 24 Noroeste 44 Oeste 0 987.5 -0.7 75
2018-01-13 15:00:00 11 10 Oeste 17 Oeste 0 987.8 -0.8 76
2018-01-13 14:00:00 9.2 8 Noroeste 37 Norte 0.2 987.9 -0.4 85
2018-01-13 13:00:00 9.9 22 Oeste 38 Noroeste 0 988.2 0.5 83
2018-01-13 12:00:00 10 15 Noroeste 25 Noroeste 0 988.6 1.3 79
2018-01-13 11:00:00 9.6 14 Noroeste 24 Noroeste 0 988.3 1.5 81
2018-01-13 10:00:00 9.4 15 Noroeste 27 Noroeste 0 987.7 1.4 85
2018-01-13 09:00:00 9 18 Norte 39 Norte 0.4 987.3 0.8 76
2018-01-13 08:00:00 9.3 11 Noroeste 30 Oeste 0 986.8 0.1 84
2018-01-13 07:00:00 9.4 15 Noroeste 26 Noroeste 0 986.3 -0.3 89
2018-01-13 06:00:00 9 8 Sudoeste 18 Oeste 0 986.5 0 93
2018-01-13 05:00:00 8.8 9 Sudoeste 17 Norte 0 986.7 -0.6 92
2018-01-13 04:00:00 8.7 12 Noroeste 27 Oeste 1.4 986.6 -0.7 94
2018-01-13 03:00:00 8 21 Norte 32 Norte 2.6 986.5 0.5 95
2018-01-13 02:00:00 9.4 9 Oeste 41 Noroeste 1.8 987.3 0.9 95
2018-01-13 01:00:00 9.9 28 Noroeste 84 Sudoeste 0.6 987.3 0.1 94
2018-01-13 00:00:00 9.7 42 Sur 90 Sur 0.4 986 -2.2 94
2018-01-12 23:00:00 9.8 50 Sur 89 Sudoeste 1.6 986.4 -2 93
2018-01-12 22:00:00 9.8 45 Sur 82 Sur 1.6 987.2 -1.7 92
2018-01-12 21:00:00 10.1 42 Sur 75 Sur 0.4 988.2 -1.4 90
2018-01-12 20:00:00 10.4 40 Sur 76 Sur 0 988.4 -1.9 86
2018-01-12 19:00:00 10.3 40 Sur 85 Sur 0 988.9 -1.9 86
2018-01-12 18:00:00 10.1 36 Sur 74 Sur 0 989.6 -2.4 84
2018-01-12 17:00:00 10.1 38 Sur 69 Sur 0 990.3 -3 85
2018-01-12 16:00:00 10.2 35 Sur 73 Sur 0 990.8 -3.6 82
2018-01-12 15:00:00 10.1 35 Sur 72 Sur 0 992 -3.3 78
2018-01-12 14:00:00 10.7 34 Sur 64 Sur 0 993.3 -2 76
2018-01-12 13:00:00 9.5 36 Sur 61 Sur 0 994.4 -0.7 77
2018-01-12 12:00:00 9 33 Sur 55 Sur 0 995.3 -0.2 78
2018-01-12 11:00:00 8.8 29 Sur 58 Sur 0 995.3 -0.4 79
2018-01-12 10:00:00 8.4 28 Sur 51 Sur 0 995.1 -0.6 79
2018-01-12 09:00:00 8.1 30 Sur 49 Sur 0 995.5 -0.7 78
2018-01-12 08:00:00 8 30 Sur 52 Sur 0 995.7 -1.4 78
2018-01-12 07:00:00 8.1 30 Sur 48 Sur 0 995.7 -2 76
2018-01-12 06:00:00 7.9 27 Sur 44 Sur 0 996.2 -1.8 75
2018-01-12 05:00:00 8 24 Sur 40 Sudeste 0 997.1 -1.6 73
2018-01-12 04:00:00 7.9 28 Sur 40 Sur 0 997.7 -1.7 71
2018-01-12 03:00:00 7.8 24 Sur 37 Sur 0 998 -1.8 75
2018-01-12 02:00:00 8.1 24 Sur 37 Sur 0 998.7 -1.3 74
2018-01-12 01:00:00 7.8 22 Sur 30 Sur 0 999.4 -0.8 76
2018-01-12 00:00:00 7.8 18 Sur 26 Sur 0 999.8 -0.3 75
2018-01-11 23:00:00 7.5 12 Sudeste 17 Sudeste 0 1000 0 74
2018-01-11 22:00:00 8.4 3 Sudeste 8 Nordeste 0 1000.2 0.4 67
2018-01-11 21:00:00 8.4 7 Norte 14 Norte 0 1000.1 0.8 66
2018-01-11 20:00:00 8.5 12 Nordeste 19 Nordeste 0 1000 1 68
2018-01-11 19:00:00 9.1 13 Norte 24 Norte 0 999.8 0.8 67
2018-01-11 18:00:00 9.6 14 Norte 27 Norte 0 999.3 0.4 68
2018-01-11 17:00:00 9.8 18 Norte 33 Norte 0 999 0.2 69
2018-01-11 16:00:00 10.3 16 Noroeste 40 Norte 0 999 0 69
2018-01-11 15:00:00 9.9 19 Norte 38 Norte 0 998.9 -0.3 69
2018-01-11 14:00:00 10.1 23 Norte 49 Norte 0 998.8 0.4 63
2018-01-11 13:00:00 9.9 20 Noroeste 48 Noroeste 0 999 1.3 62
2018-01-11 12:00:00 9.4 21 Noroeste 50 Norte 0 999.2 2.1 68
2018-01-11 11:00:00 9.1 24 Noroeste 51 Norte 0 998.4 2.1 71
2018-01-11 10:00:00 8.3 25 Noroeste 63 Norte 0 997.7 2.1 77
2018-01-11 09:00:00 9 32 Noroeste 72 Noroeste 0 997.1 2.5 69
2018-01-11 08:00:00 8.7 19 Noroeste 63 Norte 0 996.3 1.7 73
2018-01-11 07:00:00 8.2 23 Noroeste 64 Norte 0 995.6 1.5 78
2018-01-11 06:00:00 8.6 28 Noroeste 77 Noroeste 0 994.6 0.8 74
2018-01-11 05:00:00 8.7 26 Noroeste 72 Noroeste 0 994.6 0.8 71
2018-01-11 04:00:00 9 21 Noroeste 65 Noroeste 0 994.1 0.2 70
2018-01-11 03:00:00 9 24 Noroeste 79 Noroeste 0 993.8 1.1 74
2018-01-11 02:00:00 8.7 32 Noroeste 75 Noroeste 0 993.8 1.8 81
2018-01-11 01:00:00 9.6 28 Noroeste 79 Noroeste 0 993.9 2.4 75
2018-01-11 00:00:00 9.6 32 Noroeste 85 Noroeste 0.2 992.7 0.8 70
2018-01-10 23:00:00 8.8 35 Noroeste 91 Noroeste 0 992 1.1 81
2018-01-10 22:00:00 8.6 44 Noroeste 73 Noroeste 0 991.5 0.9 77
2018-01-10 21:00:00 7.8 34 Noroeste 78 Noroeste 0.2 991.9 1.3 88
2018-01-10 20:00:00 9.9 45 Noroeste 85 Noroeste 0 990.9 1.3 74
2018-01-10 19:00:00 8.8 44 Noroeste 98 Noroeste 0 990.6 2.3 81
2018-01-10 18:00:00 10 32 Noroeste 82 Norte 0 990.6 3.1 72
2018-01-10 17:00:00 10.4 35 Noroeste 86 Noroeste 0 989.6 3.2 65
2018-01-10 16:00:00 10.7 31 Noroeste 83 Noroeste 0 988.3 2.1 64
2018-01-10 15:00:00 9.8 42 Noroeste 93 Noroeste 0 987.5 2.1 74
2018-01-10 14:00:00 9.7 40 Noroeste 80 Noroeste 0.2 986.4 3 73
2018-01-10 13:00:00 8.1 42 Noroeste 119 Noroeste 0 986.2 5 81
2018-01-10 12:00:00 9.9 56 Noroeste 99 Noroeste 0.4 985.4 5.8 70
2018-01-10 11:00:00 10.1 59 Noroeste 104 Oeste 0.2 983.4 1.4 71
2018-01-10 10:00:00 10.7 64 Noroeste 113 Sudoeste 1.6 981.2 -1.9 81
2018-01-10 09:00:00 11.2 82 Sudoeste 121 Sudoeste 0.4 979.6 -4.8 92
2018-01-10 08:00:00 10.7 52 Sudoeste 80 Sudoeste 0.6 982 -3.2 91
2018-01-10 07:00:00 11 58 Sudoeste 73 Sudoeste 0 983.1 -3 87
2018-01-10 06:00:00 10.8 48 Sudoeste 60 Sudoeste 0 984.4 -1.7 85
2018-01-10 05:00:00 10.2 43 Sudoeste 55 Sudoeste 0 985.2 -1.2 84
2018-01-10 04:00:00 10.1 37 Sudoeste 45 Sudoeste 0 986.1 -0.4 85
2018-01-10 03:00:00 9.5 32 Sudoeste 40 Sudoeste 0 986.1 -0.6 83
2018-01-10 02:00:00 9.6 26 Sudoeste 34 Sudoeste 0 986.4 0 82
2018-01-10 01:00:00 10.4 28 Oeste 39 Oeste 0 986.5 0.7 77
2018-01-10 00:00:00 10.4 26 Oeste 35 Noroeste 0 986.7 1.2 77
2018-01-09 23:00:00 10.2 22 Noroeste 40 Noroeste 0 986.4 1.4 80
2018-01-09 22:00:00 10.4 22 Noroeste 44 Noroeste 0 985.8 1.8 80
2018-01-09 21:00:00 10.7 23 Noroeste 35 Oeste 0 985.5 2.2 82
2018-01-09 20:00:00 10.4 18 Noroeste 46 Noroeste 0 985 2.8 85
2018-01-09 19:00:00 10.6 26 Noroeste 48 Noroeste 0 984 2.2 84
2018-01-09 18:00:00 10.7 26 Noroeste 59 Noroeste 0 983.3 1.6 87
2018-01-09 17:00:00 10 35 Noroeste 63 Noroeste 0 982.2 0.5 89
2018-01-09 16:00:00 12.7 32 Sudoeste 43 Sudoeste 0 981.8 0.1 88
2018-01-09 15:00:00 14 26 Sudoeste 32 Sudoeste 0 981.7 1 87
2018-01-09 14:00:00 13.5 24 Oeste 32 Oeste 0 981.7 2.4 89
2018-01-09 13:00:00 12.1 25 Oeste 58 Oeste 0 981.7 3.4 91
2018-01-09 12:00:00 11 53 Sudoeste 94 Sudoeste 2.2 980.7 2.3 96
2018-01-09 11:00:00 10.3 73 Sudoeste 102 Sudoeste 0.4 979.3 1.1 96
2018-01-09 10:00:00 9.9 72 Sudoeste 103 Sudoeste 0.8 978.3 -0.1 96
2018-01-09 09:00:00 9.7 59 Sudoeste 90 Sur 4.2 978.4 -0.3 96
2018-01-09 08:00:00 9.1 44 Sur 87 Sur 3.8 978.2 -2 95
2018-01-09 07:00:00 8.7 45 Sur 89 Sur 1.6 978.4 -3 95
2018-01-09 06:00:00 8.7 44 Sur 85 Sur 0.2 978.7 -2.7 94
2018-01-09 05:00:00 8.9 37 Sur 78 Sur 0.6 980.2 -2.1 93
2018-01-09 04:00:00 9.3 37 Sur 75 Sur 0 981.4 -1.5 90
2018-01-09 03:00:00 9.5 38 Sur 73 Sudoeste 0 981.4 -2.1 90
2018-01-09 02:00:00 9.7 31 Sur 67 Sur 0 982.3 -2.1 92
2018-01-09 01:00:00 9.5 30 Sur 63 Sur 0 982.9 -2.1 89
2018-01-09 00:00:00 9.3 27 Sur 51 Sudoeste 0 983.5 -1.8 86
2018-01-08 23:00:00 9.9 27 Sur 50 Sudoeste 0 984.4 -0.9 91
2018-01-08 22:00:00 10.1 40 Sudoeste 57 Sudoeste 0 985 -0.4 92
2018-01-08 21:00:00 10 39 Sudoeste 50 Sudoeste 0.2 985.3 0.5 93
2018-01-08 20:00:00 9.9 31 Sudoeste 41 Sudoeste 0 985.3 0.3 94
2018-01-08 19:00:00 10 24 Sudoeste 30 Sudoeste 0 985.4 0.6 94
2018-01-08 18:00:00 10.2 18 Sur 29 Sur 0.2 984.8 -0.2 94
2018-01-08 17:00:00 10.2 17 Sur 23 Sur 1.6 985 -0.2 93
2018-01-08 16:00:00 10.5 13 Sur 23 Sudoeste 0.2 984.8 -0.8 91
2018-01-08 15:00:00 11.5 15 Sudoeste 26 Sudoeste 0 985 -0.3 87
2018-01-08 14:00:00 11.4 14 Sur 25 Sur 0 985.2 0.5 92
2018-01-08 13:00:00 10.9 15 Sur 23 Sudoeste 0 985.6 0.8 89
2018-01-08 12:00:00 11.3 3 Norte 13 Nordeste 0 985.3 0.8 83
2018-01-08 11:00:00 10.6 12 Nordeste 22 Nordeste 0 984.7 0.6 84
2018-01-08 10:00:00 9.7 18 Nordeste 25 Nordeste 0 984.8 1.9 90
2018-01-08 09:00:00 10 18 Nordeste 26 Nordeste 0 984.5 2.3 88
2018-01-08 08:00:00 9.4 15 Nordeste 21 Nordeste 0 984.1 1.6 90
2018-01-08 07:00:00 9 14 Nordeste 27 Nordeste 0 982.9 0.6 93
2018-01-08 06:00:00 9.1 19 Este 27 Nordeste 0 982.2 0.9 93
2018-01-08 05:00:00 9.2 16 Nordeste 27 Nordeste 0 982.5 2 94
2018-01-08 04:00:00 9.1 18 Nordeste 38 Nordeste 0.2 982.3 1.6 95
2018-01-08 03:00:00 9.6 24 Nordeste 43 Nordeste 0 981.3 0.3 95
2018-01-08 02:00:00 9.7 32 Nordeste 51 Norte 0 980.5 -0.4 94
2018-01-08 01:00:00 9.8 34 Nordeste 50 Nordeste 0 980.7 0.2 90
2018-01-08 00:00:00 9.5 31 Nordeste 55 Nordeste 0 981 0.5 90
2018-01-07 23:00:00 9.2 28 Nordeste 62 Nordeste 0 980.9 0.8 89
2018-01-07 22:00:00 8.6 34 Nordeste 68 Nordeste 0 980.5 0.6 87
2018-01-07 21:00:00 8.6 44 Nordeste 67 Nordeste 0 980.5 0.6 88
2018-01-07 20:00:00 8.7 39 Nordeste 71 Nordeste 0 980.1 0.4 86
2018-01-07 19:00:00 8 39 Nordeste 64 Nordeste 0.2 979.9 0.3 89
2018-01-07 18:00:00 8.2 44 Nordeste 69 Nordeste 0 979.9 0.3 84
2018-01-07 17:00:00 8.3 35 Nordeste 74 Nordeste 0 979.7 -0.2 83
2018-01-07 16:00:00 9.1 35 Nordeste 63 Nordeste 0 979.6 -0.8 77
2018-01-07 15:00:00 8.4 37 Nordeste 68 Nordeste 0.2 979.6 -1.7 78
2018-01-07 14:00:00 9.3 35 Nordeste 59 Nordeste 0 979.9 -1.1 70
2018-01-07 13:00:00 8.5 38 Nordeste 56 Norte 0 980.4 0 74
2018-01-07 12:00:00 7.8 31 Nordeste 53 Nordeste 0 981.3 1.2 76
2018-01-07 11:00:00 7.6 32 Nordeste 67 Nordeste 0 981 0.4 78
2018-01-07 10:00:00 7.1 50 Nordeste 75 Nordeste 0 980.4 0.3 73
2018-01-07 09:00:00 6.4 42 Nordeste 61 Nordeste 0 980.1 0 80
2018-01-07 08:00:00 7.6 33 Nordeste 65 Nordeste 0 980.6 0.3 76
2018-01-07 07:00:00 7.3 38 Nordeste 61 Norte 0 980.1 -0.2 79
2018-01-07 06:00:00 6.3 40 Nordeste 71 Nordeste 0.4 980.1 0 78
2018-01-07 05:00:00 -- 33 Nordeste 72 Nordeste 1 980.3 -0.1 85
2018-01-07 04:00:00 6.1 30 Nordeste 59 Nordeste 0 980.3 -0.3 82
2018-01-07 03:00:00 5.9 37 Nordeste 60 Nordeste 0 980.1 -0.5 79
2018-01-07 02:00:00 6 30 Nordeste 51 Nordeste 0 980.4 -0.5 84
2018-01-07 01:00:00 6.2 30 Nordeste 44 Nordeste 0.2 980.6 0 81
2018-01-07 00:00:00 6.3 32 Nordeste 40 Nordeste 0 980.6 0.2 74
2018-01-06 23:00:00 6.3 23 Nordeste 30 Nordeste 0 980.9 0.7 81
2018-01-06 22:00:00 6.1 21 Nordeste 26 Nordeste 0 980.6 0.6 85
2018-01-06 21:00:00 6.3 15 Norte 21 Norte 0 980.4 0.7 83
2018-01-06 20:00:00 6 10 Norte 15 Norte 0 980.2 1.3 79
2018-01-06 19:00:00 6.1 9 Nordeste 19 Nordeste 0 980 1.3 72
2018-01-06 18:00:00 5.7 17 Nordeste 50 Nordeste 0.4 979.7 0.7 82
2018-01-06 17:00:00 7.4 21 Norte 53 Norte 0 978.9 -0.5 78
2018-01-06 16:00:00 8.3 15 Norte 23 Norte 0 978.7 -0.9 78
2018-01-06 15:00:00 7.9 14 Norte 21 Nordeste 0 979 -1 76
2018-01-06 14:00:00 7.2 7 Norte 16 Nordeste 0 979.4 0.3 80
2018-01-06 13:00:00 7.4 3 Nordeste 14 Noroeste 0 979.6 1 78
2018-01-06 12:00:00 5.3 10 Nordeste 32 Nordeste 0.4 980 1.6 88
2018-01-06 11:00:00 6.6 5 Norte 17 Norte 0 979.1 1.3 79
2018-01-06 10:00:00 6.1 9 Noroeste 62 Norte 0.2 978.6 1.1 80
2018-01-06 09:00:00 7 11 Noroeste 28 Noroeste 0 978.4 0.6 76
2018-01-06 08:00:00 6.5 14 Noroeste 24 Noroeste 0 977.8 0.2 80
2018-01-06 07:00:00 6.4 13 Noroeste 27 Noroeste 0 977.5 -0.5 80
2018-01-06 06:00:00 6.5 11 Noroeste 31 Noroeste 0 977.8 -0.1 76
2018-01-06 05:00:00 6.6 11 Noroeste 30 Noroeste 0 977.6 -1.4 76
2018-01-06 04:00:00 6 14 Noroeste 48 Norte 0 978 -1.5 75
2018-01-06 03:00:00 6.6 20 Noroeste 48 Noroeste 0 977.9 -2.2 82
2018-01-06 02:00:00 5.5 4 Sudoeste 15 Norte 0 979 -1.5 83
2018-01-06 01:00:00 5.9 8 Noroeste 23 Noroeste 0 979.5 -1.2 78
2018-01-06 00:00:00 5.6 6 Noroeste 16 Oeste 0 980.1 -0.5 84
2018-01-05 23:00:00 5.1 7 Noroeste 15 Noroeste 0 980.5 0.1 86
2018-01-05 22:00:00 4.9 10 Nordeste 58 Norte 0.4 980.7 -0.1 83
2018-01-05 21:00:00 6.1 19 Noroeste 67 Norte 0.2 980.6 -0.5 79
2018-01-05 20:00:00 7.3 14 Noroeste 50 Noroeste 0 980.4 -0.8 68
2018-01-05 19:00:00 7.9 21 Noroeste 40 Noroeste 0 980.8 -0.6 65
2018-01-05 18:00:00 7.6 23 Noroeste 54 Noroeste 0 981.1 -0.9 70
2018-01-05 17:00:00 8.4 26 Noroeste 52 Noroeste 0 981.2 -1.2 64
2018-01-05 16:00:00 9 27 Noroeste 45 Oeste 0 981.4 -1.6 65
2018-01-05 15:00:00 9 27 Noroeste 50 Noroeste 0 982 -1.9 65
2018-01-05 14:00:00 9 19 Noroeste 51 Norte 0 982.4 -1.1 68
2018-01-05 13:00:00 9.3 20 Noroeste 52 Noroeste 0 983 -0.4 70
2018-01-05 12:00:00 9.3 17 Noroeste 61 Noroeste 0 983.9 0.9 81
2018-01-05 11:00:00 8.2 27 Noroeste 68 Noroeste 0 983.5 0.6 81
2018-01-05 10:00:00 9.5 21 Noroeste 53 Noroeste 0 983.4 0.7 83
2018-01-05 09:00:00 8.7 18 Noroeste 71 Noroeste 0.2 983 0 88
2018-01-05 08:00:00 9.2 22 Noroeste 53 Norte 0 982.9 -0.4 96
2018-01-05 07:00:00 9.9 19 Noroeste 47 Noroeste 0.4 982.7 -1.4 96
2018-01-05 06:00:00 9.7 30 Oeste 38 Oeste 0.2 983 -0.9 96
2018-01-05 05:00:00 9.7 18 Oeste 40 Noroeste 1.8 983.3 -1.3 96
2018-01-05 04:00:00 10.1 21 Noroeste 71 Noroeste 1 984.1 0.6 96
2018-01-05 03:00:00 10.7 27 Noroeste 54 Oeste 2.6 983.9 -1.1 96
2018-01-05 02:00:00 9.9 22 Oeste 93 Sudoeste 10.4 984.6 -2.2 97
2018-01-05 01:00:00 12.9 78 Sudoeste 92 Sudoeste 1.8 983.5 -3.8 96
2018-01-05 00:00:00 12.9 71 Sudoeste 92 Sudoeste 0.2 985 -3.7 96
2018-01-04 23:00:00 12.9 66 Sudoeste 94 Sudoeste 0 986.8 -3 96
2018-01-04 22:00:00 12.8 68 Sudoeste 83 Sudoeste 0 987.3 -3.5 96
2018-01-04 21:00:00 12.7 60 Sudoeste 78 Sudoeste 0 988.7 -2.6 96
2018-01-04 20:00:00 12.5 61 Sudoeste 75 Sudoeste 0 989.8 -2.1 96
2018-01-04 19:00:00 12.5 60 Sudoeste 76 Sudoeste 0 990.8 -1.8 96
2018-01-04 18:00:00 12.6 60 Sudoeste 78 Sudoeste 0 991.3 -2.1 96
2018-01-04 17:00:00 12.6 61 Sudoeste 77 Sudoeste 0 991.9 -2.4 96
2018-01-04 16:00:00 12.8 59 Sudoeste 80 Sudoeste 0 992.6 -3 96
2018-01-04 15:00:00 13 54 Sudoeste 72 Sudoeste 0 993.4 -3.2 96
2018-01-04 14:00:00 13.2 54 Sudoeste 71 Sudoeste 0 994.3 -2.5 96
2018-01-04 13:00:00 13.2 54 Sudoeste 66 Sudoeste 0 995.6 -0.9 96
2018-01-04 12:00:00 12.7 53 Sudoeste 65 Sudoeste 0 996.6 -0.3 96
2018-01-04 11:00:00 12.9 52 Sudoeste 66 Sudoeste 0 996.8 -0.4 96
2018-01-04 10:00:00 12.9 53 Sudoeste 64 Sudoeste 0 996.5 -0.9 96
2018-01-04 09:00:00 13.3 51 Sudoeste 65 Sudoeste 0 996.9 -0.9 96
2018-01-04 08:00:00 13.4 51 Sudoeste 65 Sudoeste 0 997.2 -1.1 96
2018-01-04 07:00:00 13.4 48 Sudoeste 60 Sudoeste 0 997.4 -1.4 96
2018-01-04 06:00:00 13.2 47 Sudoeste 57 Sudoeste 0 997.8 -1.3 96
2018-01-04 05:00:00 13.4 46 Sudoeste 59 Sudoeste 0 998.3 -1.6 96
2018-01-04 04:00:00 13.5 44 Sudoeste 55 Sudoeste 0 998.8 -1.8 96
2018-01-04 03:00:00 13.6 42 Sudoeste 54 Sudoeste 0 999.1 -2.3 96
2018-01-04 02:00:00 13.6 40 Sudoeste 50 Sudoeste 0 999.9 -1.7 96
2018-01-04 01:00:00 13.4 38 Sudoeste 50 Sudoeste 0 1000.6 -1.1 96
2018-01-04 00:00:00 13.4 38 Sudoeste 49 Oeste 0 1001.4 -0.8 96
2018-01-03 23:00:00 13.5 40 Oeste 53 Oeste 0.2 1001.6 -0.5 96
2018-01-03 22:00:00 13.5 37 Sudoeste 48 Sudoeste 0 1001.7 -0.4 96
2018-01-03 21:00:00 13.4 33 Sudoeste 54 Oeste 0 1002.2 0.2 96
2018-01-03 20:00:00 13.4 40 Sudoeste 53 Sudoeste 0 1002.1 0 96
2018-01-03 19:00:00 13.3 37 Sudoeste 50 Oeste 0 1002.1 0 96
2018-01-03 18:00:00 13.4 40 Oeste 52 Sudoeste 0.2 1002 -0.5 96
2018-01-03 17:00:00 13.7 37 Sudoeste 49 Oeste 0 1002.1 -0.9 96
2018-01-03 16:00:00 13.7 38 Sudoeste 49 Sudoeste 0 1002.1 -1.5 96
2018-01-03 15:00:00 13.7 40 Oeste 50 Oeste 0 1002.5 -1.4 96
2018-01-03 14:00:00 13.7 36 Oeste 48 Oeste 0.2 1003 -0.6 96
2018-01-03 13:00:00 13.8 34 Sudoeste 41 Sudoeste 0 1003.6 0.6 96
2018-01-03 12:00:00 13.7 30 Oeste 42 Oeste 0 1003.9 1.4 96
2018-01-03 11:00:00 13.8 38 Oeste 47 Oeste 0 1003.6 1.7 96
2018-01-03 10:00:00 13.8 37 Oeste 54 Oeste 0.2 1003 1.1 96
2018-01-03 09:00:00 13.7 44 Oeste 57 Oeste 0 1002.5 1 96
2018-01-03 08:00:00 13.7 41 Oeste 53 Oeste 0.2 1001.9 0.2 96
2018-01-03 07:00:00 13.7 44 Oeste 56 Oeste 0 1001.9 -0.3 96
2018-01-03 06:00:00 13.6 44 Oeste 56 Oeste 0 1001.5 -0.7 96
2018-01-03 05:00:00 13.7 41 Oeste 52 Oeste 0 1001.7 -0.8 96
2018-01-03 04:00:00 13.7 40 Oeste 51 Oeste 0.2 1002.2 -0.3 96
2018-01-03 03:00:00 13.8 44 Oeste 60 Oeste 0 1002.2 -0.1 96
2018-01-03 02:00:00 13.8 44 Oeste 62 Oeste 0.2 1002.5 0.3 96
2018-01-03 01:00:00 13.8 44 Oeste 60 Oeste 0 1002.5 0.6 96
2018-01-03 00:00:00 13.8 43 Oeste 58 Oeste 0.2 1002.3 0.5 96
2018-01-02 23:00:00 14 50 Oeste 60 Oeste 0 1002.2 0.5 96
2018-01-02 22:00:00 13.8 43 Sudoeste 52 Sudoeste 0.2 1001.9 0.3 96
2018-01-02 21:00:00 13.9 40 Sudoeste 50 Sudoeste 0 1001.8 0.5 96
2018-01-02 20:00:00 13.8 39 Sudoeste 49 Sudoeste 0 1001.7 0.6 96
2018-01-02 19:00:00 13.9 43 Oeste 56 Oeste 0 1001.6 0.4 96
2018-01-02 18:00:00 13.9 47 Oeste 57 Oeste 0.2 1001.3 0.2 96
2018-01-02 17:00:00 14 42 Oeste 53 Oeste 0 1001.1 -0.2 96
2018-01-02 16:00:00 14 43 Oeste 54 Oeste 0 1001.2 -0.5 96
2018-01-02 15:00:00 14 40 Oeste 51 Oeste 0.2 1001.1 -0.7 96
2018-01-02 14:00:00 14 40 Oeste 51 Oeste 0 1001.3 0.1 96
2018-01-02 13:00:00 14 40 Oeste 55 Oeste 0 1001.7 0.9 96
2018-01-02 12:00:00 14 49 Oeste 69 Oeste 0 1001.8 1.6 96
2018-01-02 11:00:00 13.9 54 Oeste 70 Oeste 0.2 1001.2 1.1 96
2018-01-02 10:00:00 13.7 54 Oeste 70 Oeste 0 1000.8 1.2 96
2018-01-02 09:00:00 13.6 56 Oeste 70 Oeste 0.4 1000.2 0.4 96
2018-01-02 08:00:00 13.5 52 Oeste 67 Oeste 0.4 1000.1 0 95
2018-01-02 07:00:00 13.3 50 Sudoeste 67 Oeste 0.8 999.6 -1.2 95
2018-01-02 06:00:00 13.1 48 Sudoeste 65 Sudoeste 0.2 999.8 -1.3 95
2018-01-02 05:00:00 13 50 Sudoeste 62 Sudoeste 0.2 1000.1 -1.4 95
2018-01-02 04:00:00 13 45 Sudoeste 57 Sudoeste 0 1000.8 -1.3 94
2018-01-02 03:00:00 12.9 43 Sudoeste 56 Sudoeste 0 1001.1 -1.1 94
2018-01-02 02:00:00 12.7 42 Sudoeste 53 Sudoeste 0 1001.5 -0.7 93
2018-01-02 01:00:00 12.8 41 Sudoeste 53 Sudoeste 0 1002.1 -0.1 92
2018-01-02 00:00:00 12.7 44 Sudoeste 54 Sudoeste 0 1002.2 0.1 91
2018-01-01 23:00:00 12.6 41 Sudoeste 52 Sudoeste 0 1002.2 0.5 90
2018-01-01 22:00:00 12.6 41 Sudoeste 51 Sudoeste 0 1002.2 0.9 92
2018-01-01 21:00:00 12.5 38 Sudoeste 53 Oeste 0 1002.1 1.2 91
2018-01-01 20:00:00 12.6 41 Oeste 54 Oeste 0 1001.7 0.9 89
2018-01-01 19:00:00 12.7 44 Oeste 65 Oeste 0 1001.3 0.5 88
2018-01-01 18:00:00 12.8 48 Oeste 70 Oeste 0 1000.9 0.3 89
2018-01-01 17:00:00 12.7 48 Oeste 60 Oeste 0 1000.8 0 91
2018-01-01 16:00:00 12.7 49 Oeste 64 Oeste 0 1000.8 -0.4 90
2018-01-01 15:00:00 12.6 49 Oeste 71 Oeste 0 1000.6 -0.7 91
2018-01-01 14:00:00 12.6 55 Oeste 73 Oeste 0 1000.8 -0.1 91
2018-01-01 13:00:00 12.4 54 Oeste 69 Oeste 0 1001.2 1.1 92
2018-01-01 12:00:00 12.3 50 Oeste 72 Oeste 0 1001.3 1.8 94
2018-01-01 11:00:00 12.3 54 Oeste 73 Oeste 0 1000.9 1.7 92
2018-01-01 10:00:00 12.2 54 Oeste 69 Oeste 0 1000.1 0.9 93
2018-01-01 09:00:00 11.8 51 Sudoeste 77 Oeste 0.4 999.5 0.3 93
2018-01-01 08:00:00 11.7 57 Oeste 79 Oeste 0.6 999.2 -0.5 92
2018-01-01 07:00:00 11.8 53 Sudoeste 81 Sudoeste 0.2 999.2 -0.8 90
2018-01-01 06:00:00 11.7 51 Sudoeste 73 Sudoeste 0 999.2 -1.2 88
2018-01-01 05:00:00 11.9 52 Sudoeste 73 Sudoeste 0 999.7 -0.6 82
2018-01-01 04:00:00 11.7 46 Sudoeste 62 Sudoeste 0 1000 -0.3 82
2018-01-01 03:00:00 11.5 48 Oeste 63 Sudoeste 0 1000.4 0.1 80
2018-01-01 02:00:00 11.4 42 Sudoeste 58 Oeste 0 1000.3 0 84
2018-01-01 01:00:00 11.4 38 Sudoeste 52 Oeste 0 1000.3 0.3 83
2018-01-01 00:00:00 11.3 37 Oeste 49 Oeste 0 1000.3 0.6 81
2017-12-31 23:00:00 11.6 38 Oeste 50 Oeste 0 1000.3 1.5 80
2017-12-31 22:00:00 11.4 36 Oeste 48 Oeste 0 1000 1.8 82
2017-12-31 21:00:00 11.5 33 Oeste 47 Oeste 0 999.7 2.8 77
2017-12-31 20:00:00 11.5 30 Noroeste 51 Noroeste 0 998.8 3.5 78
2017-12-31 19:00:00 11 28 Noroeste 60 Noroeste 0 998.2 4 73
2017-12-31 18:00:00 11.1 36 Noroeste 74 Noroeste 0 996.9 3.1 72
2017-12-31 17:00:00 11.7 42 Noroeste 69 Noroeste 0 995.3 2.9 63
2017-12-31 16:00:00 11.7 35 Noroeste 58 Noroeste 0 994.2 2.6 72
2017-12-31 15:00:00 10.4 28 Noroeste 79 Noroeste 0 993.8 3 77
2017-12-31 14:00:00 11.9 48 Noroeste 78 Noroeste 0 992.4 3 76
2017-12-31 13:00:00 11.3 40 Noroeste 67 Noroeste 0 991.6 3.3 76
2017-12-31 12:00:00 11 37 Noroeste 78 Oeste 0 990.8 3.3 85
2017-12-31 11:00:00 11 48 Oeste 73 Oeste 1 989.4 2 93
2017-12-31 10:00:00 10.6 48 Oeste 71 Oeste 1.8 988.3 3 95
2017-12-31 09:00:00 11 55 Oeste 72 Oeste 4.4 987.5 1.4 95
2017-12-31 08:00:00 12.6 59 Sudoeste 102 Sudoeste 1.6 987.4 0.3 95
2017-12-31 07:00:00 12.7 69 Sudoeste 98 Sudoeste 0 985.3 -3.2 94
2017-12-31 06:00:00 12.7 74 Sudoeste 103 Sudoeste 0 986.1 -2.9 95
2017-12-31 05:00:00 12.6 77 Sudoeste 108 Sudoeste 0 987.1 -3 96
2017-12-31 04:00:00 12.8 64 Sudoeste 96 Sudoeste 0 988.5 -2.8 96
2017-12-31 03:00:00 12.8 71 Sudoeste 95 Sudoeste 0 989 -3.4 96
2017-12-31 02:00:00 12.8 70 Sudoeste 87 Sudoeste 0 990.1 -2.2 96
2017-12-31 01:00:00 12.9 69 Sudoeste 89 Sudoeste 0 991.3 -1.8 96